x

Sombrero Key, Fl (smkf1) Weather Station

7:00am - Thu 30th Oct 2014 All times are CDT. -4 hours from GMT.

  • Wind
    8mph, 9mph gusts
  • Air Temp 78°f
  • Sea Pressure 1015.1mb
  • Sombrero Key, Fl
  • Sombrero Key, Fl

More Historic Weather Station data

Upgrade to MSW Pro to gain access to the past 30 days of data for over 8000 Wavebouys and Weather Stations around the globe.

Join Pro

Comparision Forecast

View Surf forecast
   
Thu 10/30 7:00am 8 9 mph 1015.1mb 78f
6:00am 7 9 mph 1014.6mb 78f
5:00am 8 9 mph 1014.5mb 78f
4:00am 7 8 mph 1014.6mb 78f
3:00am 9 10 mph 1015.1mb 78f
2:00am 8
mph
1015.7mb 78f
1:00am 8 9 mph 1015.9mb 79f
12:00am 8
mph
1016.3mb 79f
Wed 10/29 11:00pm 8 9 mph 1016.5mb 79f
10:00pm 6 7 mph 1016.6mb 79f
9:00pm 7 8 mph 1016.6mb 80f
8:00pm 7 8 mph 1016.3mb 80f
7:00pm 9 11 mph 1016mb 80f
6:00pm 9 10 mph 1016mb 82f
5:00pm 9 10 mph 1016mb 83f
4:00pm 8 9 mph 1016.3mb 83f
3:00pm 10
mph
1016.9mb 82f
2:00pm 13 14 mph 1017.4mb 82f
1:00pm 13 14 mph 1018.2mb 81f
12:00pm 11 13 mph 1019.1mb 81f
11:00am 15 16 mph 1019.1mb 81f
10:00am 15 16 mph 1018.9mb 80f
9:00am 16 18 mph 1018.6mb 80f
8:00am 16 17 mph 1018.4mb 80f
7:00am 17 18 mph 1018mb 80f
6:00am 16 17 mph 1017.8mb 80f
5:00am 17
mph
1017.6mb 80f
4:00am 18
mph
1017.5mb 80f
3:00am 16 18 mph 1017.8mb 80f
2:00am 17 20 mph 1018.4mb 80f
1:00am 20 21 mph 1018.4mb 80f
12:00am 17 18 mph 1019mb 80f
Tue 10/28 11:00pm 20 21 mph 1019.2mb 81f
10:00pm 20 22 mph 1019mb 81f
9:00pm 18 21 mph 1018.6mb 81f
8:00pm 18 20 mph 1018.1mb 80f
7:00pm 20 22 mph 1018mb 80f
6:00pm 22 23 mph 1017.6mb 80f
5:00pm 22 24 mph 1017.8mb 80f
4:00pm 20 22 mph 1017.8mb 80f
3:00pm 20 22 mph 1017.9mb 80f
2:00pm 22 23 mph 1018.4mb 80f
1:00pm 21 23 mph 1019.2mb 80f
12:00pm 21 22 mph 1019.8mb 80f
11:00am 22 23 mph 1019.8mb 80f
10:00am 22 23 mph 1019.6mb 80f
9:00am 20 21 mph 1019.3mb 80f
8:00am 18 21 mph 1019mb 80f
7:00am 20 21 mph 1018.5mb 79f
6:00am 18 20 mph 1018.2mb 79f
5:00am 18 21 mph 1017.8mb 80f
4:00am 16 20 mph 1017.7mb 79f
3:00am 23 25 mph 1017.4mb 80f
2:00am 17 18 mph 1017.8mb 80f
1:00am 20 22 mph 1017.7mb 80f
12:00am 20 21 mph 1018.3mb 80f
Mon 10/27 11:00pm 17 18 mph 1018.5mb 80f
10:00pm 20 21 mph 1018.4mb 80f
9:00pm 20 22 mph 1017.8mb 80f
8:00pm 20 21 mph 1017.4mb 80f
7:00pm 20
mph
1016.9mb 79f
6:00pm 18 20 mph 1016.9mb 80f
5:00pm 20 21 mph 1016.7mb 80f
4:00pm 18
mph
1016.7mb 80f
3:00pm 17 21 mph 1016.8mb 79f
2:00pm 15 16 mph 1017.3mb 78f
1:00pm 16
mph
1018.1mb 77f
12:00pm 15 16 mph 1018.7mb 76f
11:00am 16 17 mph 1018.7mb 76f
10:00am 15 16 mph 1018.5mb 75f
9:00am 16 17 mph 1017.8mb 75f
8:00am 15 16 mph 1016.9mb 75f
7:00am 14 16 mph 1016.5mb 76f
6:00am 14 15 mph 1016.2mb 77f
5:00am 15 17 mph 1015.8mb 78f
4:00am 16 17 mph 1015.7mb 77f
3:00am 20 21 mph 1015.7mb 78f
2:00am 15 16 mph 1016.1mb 78f
1:00am 16 17 mph 1016.3mb 78f
12:00am 15 16 mph 1016.6mb 78f
Sun 10/26 11:00pm 16 17 mph 1016.5mb 77f
10:00pm 14 15 mph 1016.5mb 77f
9:00pm 13 15 mph 1016.4mb 78f
8:00pm 10 11 mph 1015.9mb 77f
7:00pm 10 11 mph 1015.5mb 77f
6:00pm 9
mph
1015mb 78f
5:00pm 13
mph
1014.5mb 79f
4:00pm 13 14 mph 1014.3mb 78f
3:00pm 11 14 mph 1014.5mb 77f
2:00pm 15 16 mph 1014.9mb 77f
1:00pm 15 16 mph 1015.4mb 75f